sensor_id;sensor_type;location;lat;lon;timestamp;P1;durP1;ratioP1;P2;durP2;ratioP2
66800;SDS011;53703;50.326;19.122;2023-05-10T00:00:59;7.80;;;3.80;;
66800;SDS011;53703;50.326;19.122;2023-05-10T00:03:53;8.60;;;4.30;;
66800;SDS011;53703;50.326;19.122;2023-05-10T00:06:47;8.50;;;4.40;;
66800;SDS011;53703;50.326;19.122;2023-05-10T00:09:40;7.50;;;3.80;;
66800;SDS011;53703;50.326;19.122;2023-05-10T00:12:35;9.10;;;4.40;;
66800;SDS011;53703;50.326;19.122;2023-05-10T00:15:29;8.80;;;4.00;;
66800;SDS011;53703;50.326;19.122;2023-05-10T00:18:22;9.70;;;3.90;;
66800;SDS011;53703;50.326;19.122;2023-05-10T00:21:16;7.50;;;4.20;;
66800;SDS011;53703;50.326;19.122;2023-05-10T00:24:10;8.70;;;3.90;;
66800;SDS011;53703;50.326;19.122;2023-05-10T00:27:04;7.60;;;3.70;;
66800;SDS011;53703;50.326;19.122;2023-05-10T00:29:58;9.00;;;4.10;;
66800;SDS011;53703;50.326;19.122;2023-05-10T00:32:52;8.90;;;4.10;;
66800;SDS011;53703;50.326;19.122;2023-05-10T00:35:46;8.40;;;4.20;;
66800;SDS011;53703;50.326;19.122;2023-05-10T00:38:39;9.20;;;4.70;;
66800;SDS011;53703;50.326;19.122;2023-05-10T00:41:33;7.60;;;4.10;;
66800;SDS011;53703;50.326;19.122;2023-05-10T00:44:27;7.10;;;4.20;;
66800;SDS011;53703;50.326;19.122;2023-05-10T00:47:21;7.40;;;4.40;;
66800;SDS011;53703;50.326;19.122;2023-05-10T00:50:15;7.20;;;4.00;;
66800;SDS011;53703;50.326;19.122;2023-05-10T00:53:10;7.80;;;4.10;;
66800;SDS011;53703;50.326;19.122;2023-05-10T00:56:03;6.40;;;4.00;;
66800;SDS011;53703;50.326;19.122;2023-05-10T00:58:57;9.10;;;4.00;;
66800;SDS011;53703;50.326;19.122;2023-05-10T01:01:51;9.70;;;5.50;;
66800;SDS011;53703;50.326;19.122;2023-05-10T01:04:45;9.30;;;3.60;;
66800;SDS011;53703;50.326;19.122;2023-05-10T01:07:40;8.10;;;4.50;;
66800;SDS011;53703;50.326;19.122;2023-05-10T01:10:35;8.00;;;3.90;;
66800;SDS011;53703;50.326;19.122;2023-05-10T01:13:32;7.40;;;3.80;;
66800;SDS011;53703;50.326;19.122;2023-05-10T01:16:28;6.60;;;4.10;;
66800;SDS011;53703;50.326;19.122;2023-05-10T01:19:26;9.20;;;4.10;;
66800;SDS011;53703;50.326;19.122;2023-05-10T01:22:33;10.60;;;4.20;;
66800;SDS011;53703;50.326;19.122;2023-05-10T01:29:32;8.70;;;4.10;;
66800;SDS011;53703;50.326;19.122;2023-05-10T01:33:08;7.00;;;3.70;;
66800;SDS011;53703;50.326;19.122;2023-05-10T01:36:11;8.80;;;3.90;;
66800;SDS011;53703;50.326;19.122;2023-05-10T01:39:11;7.60;;;3.70;;
66800;SDS011;53703;50.326;19.122;2023-05-10T01:42:31;8.50;;;4.50;;
66800;SDS011;53703;50.326;19.122;2023-05-10T01:45:50;7.70;;;3.70;;
66800;SDS011;53703;50.326;19.122;2023-05-10T01:48:55;7.30;;;3.80;;
66800;SDS011;53703;50.326;19.122;2023-05-10T01:51:54;7.40;;;4.60;;
66800;SDS011;53703;50.326;19.122;2023-05-10T01:55:11;8.00;;;4.20;;
66800;SDS011;53703;50.326;19.122;2023-05-10T01:58:09;6.90;;;4.00;;
66800;SDS011;53703;50.326;19.122;2023-05-10T02:01:07;6.10;;;3.70;;
66800;SDS011;53703;50.326;19.122;2023-05-10T02:04:02;6.80;;;3.90;;
66800;SDS011;53703;50.326;19.122;2023-05-10T02:06:57;6.50;;;3.80;;
66800;SDS011;53703;50.326;19.122;2023-05-10T02:09:51;10.70;;;4.30;;
66800;SDS011;53703;50.326;19.122;2023-05-10T02:12:47;8.60;;;4.40;;
66800;SDS011;53703;50.326;19.122;2023-05-10T02:15:42;10.50;;;4.50;;
66800;SDS011;53703;50.326;19.122;2023-05-10T02:18:39;9.90;;;4.40;;
66800;SDS011;53703;50.326;19.122;2023-05-10T02:21:34;9.50;;;4.40;;
66800;SDS011;53703;50.326;19.122;2023-05-10T02:24:29;7.50;;;4.00;;
66800;SDS011;53703;50.326;19.122;2023-05-10T02:27:24;8.30;;;4.30;;
66800;SDS011;53703;50.326;19.122;2023-05-10T02:30:19;9.10;;;4.20;;
66800;SDS011;53703;50.326;19.122;2023-05-10T02:33:14;9.70;;;4.60;;
66800;SDS011;53703;50.326;19.122;2023-05-10T02:36:10;10.20;;;4.70;;
66800;SDS011;53703;50.326;19.122;2023-05-10T02:39:04;11.40;;;4.80;;
66800;SDS011;53703;50.326;19.122;2023-05-10T02:42:00;12.70;;;5.30;;
66800;SDS011;53703;50.326;19.122;2023-05-10T02:44:59;12.90;;;4.90;;
66800;SDS011;53703;50.326;19.122;2023-05-10T02:47:56;13.20;;;5.30;;
66800;SDS011;53703;50.326;19.122;2023-05-10T02:50:50;13.00;;;5.20;;
66800;SDS011;53703;50.326;19.122;2023-05-10T02:54:11;14.50;;;5.50;;
66800;SDS011;53703;50.326;19.122;2023-05-10T02:57:11;11.90;;;5.70;;
66800;SDS011;53703;50.326;19.122;2023-05-10T03:00:25;15.30;;;5.30;;
66800;SDS011;53703;50.326;19.122;2023-05-10T03:03:19;11.90;;;5.20;;
66800;SDS011;53703;50.326;19.122;2023-05-10T03:06:13;15.30;;;6.00;;
66800;SDS011;53703;50.326;19.122;2023-05-10T03:09:07;20.10;;;5.90;;
66800;SDS011;53703;50.326;19.122;2023-05-10T03:12:07;14.60;;;5.90;;
66800;SDS011;53703;50.326;19.122;2023-05-10T03:15:07;24.40;;;6.60;;
66800;SDS011;53703;50.326;19.122;2023-05-10T03:18:09;20.20;;;6.50;;
66800;SDS011;53703;50.326;19.122;2023-05-10T03:21:08;14.60;;;5.90;;
66800;SDS011;53703;50.326;19.122;2023-05-10T03:24:07;20.40;;;6.30;;
66800;SDS011;53703;50.326;19.122;2023-05-10T03:27:06;13.40;;;6.30;;
66800;SDS011;53703;50.326;19.122;2023-05-10T03:30:02;18.20;;;6.70;;
66800;SDS011;53703;50.326;19.122;2023-05-10T03:33:05;14.00;;;6.50;;
66800;SDS011;53703;50.326;19.122;2023-05-10T03:35:59;14.90;;;6.20;;
66800;SDS011;53703;50.326;19.122;2023-05-10T03:38:53;15.30;;;6.00;;
66800;SDS011;53703;50.326;19.122;2023-05-10T03:41:47;17.80;;;6.50;;
66800;SDS011;53703;50.326;19.122;2023-05-10T03:44:41;16.70;;;6.30;;
66800;SDS011;53703;50.326;19.122;2023-05-10T03:47:35;17.30;;;6.70;;
66800;SDS011;53703;50.326;19.122;2023-05-10T03:50:29;21.70;;;6.50;;
66800;SDS011;53703;50.326;19.122;2023-05-10T03:53:24;15.10;;;6.70;;
66800;SDS011;53703;50.326;19.122;2023-05-10T03:56:18;17.80;;;6.80;;
66800;SDS011;53703;50.326;19.122;2023-05-10T03:59:12;21.80;;;7.10;;
66800;SDS011;53703;50.326;19.122;2023-05-10T04:02:05;19.00;;;6.50;;
66800;SDS011;53703;50.326;19.122;2023-05-10T04:04:59;20.70;;;6.70;;
66800;SDS011;53703;50.326;19.122;2023-05-10T04:07:54;17.40;;;6.70;;
66800;SDS011;53703;50.326;19.122;2023-05-10T04:10:48;16.60;;;6.40;;
66800;SDS011;53703;50.326;19.122;2023-05-10T04:13:42;14.10;;;6.40;;
66800;SDS011;53703;50.326;19.122;2023-05-10T04:16:36;26.10;;;7.00;;
66800;SDS011;53703;50.326;19.122;2023-05-10T04:19:18;21.90;;;6.80;;
66800;SDS011;53703;50.326;19.122;2023-05-10T04:22:12;19.00;;;6.60;;
66800;SDS011;53703;50.326;19.122;2023-05-10T04:25:08;19.20;;;7.50;;
66800;SDS011;53703;50.326;19.122;2023-05-10T04:28:02;16.30;;;6.90;;
66800;SDS011;53703;50.326;19.122;2023-05-10T04:31:03;12.70;;;6.30;;
66800;SDS011;53703;50.326;19.122;2023-05-10T04:33:59;16.20;;;6.90;;
66800;SDS011;53703;50.326;19.122;2023-05-10T04:36:52;15.70;;;6.10;;
66800;SDS011;53703;50.326;19.122;2023-05-10T04:39:47;15.60;;;6.50;;
66800;SDS011;53703;50.326;19.122;2023-05-10T04:42:42;17.30;;;6.30;;
66800;SDS011;53703;50.326;19.122;2023-05-10T04:45:37;16.40;;;6.00;;
66800;SDS011;53703;50.326;19.122;2023-05-10T04:48:31;16.90;;;6.20;;
66800;SDS011;53703;50.326;19.122;2023-05-10T04:51:25;17.30;;;6.50;;
66800;SDS011;53703;50.326;19.122;2023-05-10T04:54:19;16.70;;;6.00;;
66800;SDS011;53703;50.326;19.122;2023-05-10T04:57:13;14.40;;;6.80;;
66800;SDS011;53703;50.326;19.122;2023-05-10T05:00:11;15.80;;;6.70;;
66800;SDS011;53703;50.326;19.122;2023-05-10T05:03:07;13.30;;;6.30;;
66800;SDS011;53703;50.326;19.122;2023-05-10T05:06:02;13.00;;;6.50;;
66800;SDS011;53703;50.326;19.122;2023-05-10T05:08:56;11.10;;;6.20;;
66800;SDS011;53703;50.326;19.122;2023-05-10T05:11:50;13.90;;;6.60;;
66800;SDS011;53703;50.326;19.122;2023-05-10T05:14:44;14.20;;;6.10;;
66800;SDS011;53703;50.326;19.122;2023-05-10T05:17:38;12.40;;;5.80;;
66800;SDS011;53703;50.326;19.122;2023-05-10T05:20:34;10.40;;;5.40;;
66800;SDS011;53703;50.326;19.122;2023-05-10T05:23:28;11.20;;;5.80;;
66800;SDS011;53703;50.326;19.122;2023-05-10T05:26:23;12.50;;;6.00;;
66800;SDS011;53703;50.326;19.122;2023-05-10T05:29:18;11.80;;;5.70;;
66800;SDS011;53703;50.326;19.122;2023-05-10T05:32:12;12.70;;;6.10;;
66800;SDS011;53703;50.326;19.122;2023-05-10T05:35:07;12.60;;;5.90;;
66800;SDS011;53703;50.326;19.122;2023-05-10T05:38:01;11.00;;;5.50;;
66800;SDS011;53703;50.326;19.122;2023-05-10T05:40:56;9.40;;;5.80;;
66800;SDS011;53703;50.326;19.122;2023-05-10T05:43:50;10.30;;;4.90;;
66800;SDS011;53703;50.326;19.122;2023-05-10T05:46:44;11.20;;;5.20;;
66800;SDS011;53703;50.326;19.122;2023-05-10T05:49:37;12.10;;;5.30;;
66800;SDS011;53703;50.326;19.122;2023-05-10T05:52:31;10.20;;;5.00;;
66800;SDS011;53703;50.326;19.122;2023-05-10T05:55:25;13.60;;;4.90;;
66800;SDS011;53703;50.326;19.122;2023-05-10T05:58:20;8.70;;;4.70;;
66800;SDS011;53703;50.326;19.122;2023-05-10T06:01:15;11.40;;;5.20;;
66800;SDS011;53703;50.326;19.122;2023-05-10T06:04:09;8.90;;;5.00;;
66800;SDS011;53703;50.326;19.122;2023-05-10T06:07:03;11.50;;;5.30;;
66800;SDS011;53703;50.326;19.122;2023-05-10T06:09:58;10.50;;;4.50;;
66800;SDS011;53703;50.326;19.122;2023-05-10T06:12:52;8.40;;;4.60;;
66800;SDS011;53703;50.326;19.122;2023-05-10T06:15:46;10.60;;;4.80;;
66800;SDS011;53703;50.326;19.122;2023-05-10T06:18:40;9.70;;;4.90;;
66800;SDS011;53703;50.326;19.122;2023-05-10T06:21:34;8.40;;;4.40;;
66800;SDS011;53703;50.326;19.122;2023-05-10T06:24:28;8.50;;;4.10;;
66800;SDS011;53703;50.326;19.122;2023-05-10T06:27:22;8.90;;;3.80;;
66800;SDS011;53703;50.326;19.122;2023-05-10T06:30:17;10.40;;;4.60;;
66800;SDS011;53703;50.326;19.122;2023-05-10T06:33:14;7.60;;;4.00;;
66800;SDS011;53703;50.326;19.122;2023-05-10T06:36:08;8.90;;;3.90;;
66800;SDS011;53703;50.326;19.122;2023-05-10T06:39:02;8.00;;;4.10;;
66800;SDS011;53703;50.326;19.122;2023-05-10T06:41:56;8.20;;;4.00;;
66800;SDS011;53703;50.326;19.122;2023-05-10T06:44:50;8.70;;;4.10;;
66800;SDS011;53703;50.326;19.122;2023-05-10T06:47:44;7.80;;;3.60;;
66800;SDS011;53703;50.326;19.122;2023-05-10T06:50:38;6.50;;;3.90;;
66800;SDS011;53703;50.326;19.122;2023-05-10T06:53:32;6.50;;;3.40;;
66800;SDS011;53703;50.326;19.122;2023-05-10T06:56:26;7.30;;;3.90;;
66800;SDS011;53703;50.326;19.122;2023-05-10T06:59:20;7.70;;;3.40;;
66800;SDS011;53703;50.326;19.122;2023-05-10T07:02:15;7.60;;;3.90;;
66800;SDS011;53703;50.326;19.122;2023-05-10T07:05:10;6.10;;;3.30;;
66800;SDS011;53703;50.326;19.122;2023-05-10T07:08:05;6.50;;;3.60;;
66800;SDS011;53703;50.326;19.122;2023-05-10T07:11:02;9.40;;;3.70;;
66800;SDS011;53703;50.326;19.122;2023-05-10T07:13:58;11.70;;;3.50;;
66800;SDS011;53703;50.326;19.122;2023-05-10T07:16:52;5.60;;;3.30;;
66800;SDS011;53703;50.326;19.122;2023-05-10T07:19:46;6.10;;;3.20;;
66800;SDS011;53703;50.326;19.122;2023-05-10T07:22:40;6.30;;;3.40;;
66800;SDS011;53703;50.326;19.122;2023-05-10T07:25:34;5.80;;;3.30;;
66800;SDS011;53703;50.326;19.122;2023-05-10T07:28:28;10.30;;;4.90;;
66800;SDS011;53703;50.326;19.122;2023-05-10T07:31:22;8.90;;;3.30;;
66800;SDS011;53703;50.326;19.122;2023-05-10T07:34:16;7.00;;;3.50;;
66800;SDS011;53703;50.326;19.122;2023-05-10T07:37:10;5.40;;;3.20;;
66800;SDS011;53703;50.326;19.122;2023-05-10T07:40:06;5.60;;;2.90;;
66800;SDS011;53703;50.326;19.122;2023-05-10T07:43:01;6.20;;;3.30;;
66800;SDS011;53703;50.326;19.122;2023-05-10T07:45:55;7.10;;;3.10;;
66800;SDS011;53703;50.326;19.122;2023-05-10T07:48:50;5.10;;;3.00;;
66800;SDS011;53703;50.326;19.122;2023-05-10T07:51:44;7.20;;;3.40;;
66800;SDS011;53703;50.326;19.122;2023-05-10T07:54:38;9.30;;;2.90;;
66800;SDS011;53703;50.326;19.122;2023-05-10T07:57:32;6.50;;;2.80;;
66800;SDS011;53703;50.326;19.122;2023-05-10T08:00:26;7.50;;;3.00;;
66800;SDS011;53703;50.326;19.122;2023-05-10T08:03:19;3.50;;;2.50;;
66800;SDS011;53703;50.326;19.122;2023-05-10T08:06:14;8.10;;;2.50;;
66800;SDS011;53703;50.326;19.122;2023-05-10T08:09:09;5.60;;;2.50;;
66800;SDS011;53703;50.326;19.122;2023-05-10T08:12:03;6.00;;;2.20;;
66800;SDS011;53703;50.326;19.122;2023-05-10T08:14:57;8.90;;;2.90;;
66800;SDS011;53703;50.326;19.122;2023-05-10T08:17:51;4.30;;;2.50;;
66800;SDS011;53703;50.326;19.122;2023-05-10T08:20:45;4.90;;;2.80;;
66800;SDS011;53703;50.326;19.122;2023-05-10T08:23:39;6.30;;;2.70;;
66800;SDS011;53703;50.326;19.122;2023-05-10T08:26:36;4.20;;;2.60;;
66800;SDS011;53703;50.326;19.122;2023-05-10T08:29:30;4.20;;;2.50;;
66800;SDS011;53703;50.326;19.122;2023-05-10T08:32:39;3.80;;;2.30;;
66800;SDS011;53703;50.326;19.122;2023-05-10T08:35:33;5.70;;;2.60;;
66800;SDS011;53703;50.326;19.122;2023-05-10T08:38:27;4.20;;;2.50;;
66800;SDS011;53703;50.326;19.122;2023-05-10T08:41:22;4.20;;;2.30;;
66800;SDS011;53703;50.326;19.122;2023-05-10T08:44:18;4.20;;;2.10;;
66800;SDS011;53703;50.326;19.122;2023-05-10T08:47:12;4.40;;;2.10;;
66800;SDS011;53703;50.326;19.122;2023-05-10T08:50:10;9.00;;;2.60;;
66800;SDS011;53703;50.326;19.122;2023-05-10T08:53:06;4.60;;;2.00;;
66800;SDS011;53703;50.326;19.122;2023-05-10T08:56:02;3.60;;;2.10;;
66800;SDS011;53703;50.326;19.122;2023-05-10T08:58:57;4.70;;;2.40;;
66800;SDS011;53703;50.326;19.122;2023-05-10T09:01:51;4.70;;;2.30;;
66800;SDS011;53703;50.326;19.122;2023-05-10T09:04:47;4.10;;;2.50;;
66800;SDS011;53703;50.326;19.122;2023-05-10T09:07:40;3.90;;;2.10;;
66800;SDS011;53703;50.326;19.122;2023-05-10T09:10:34;4.00;;;2.20;;
66800;SDS011;53703;50.326;19.122;2023-05-10T09:13:28;6.40;;;2.50;;
66800;SDS011;53703;50.326;19.122;2023-05-10T09:16:23;4.70;;;2.50;;
66800;SDS011;53703;50.326;19.122;2023-05-10T09:19:17;3.50;;;2.30;;
66800;SDS011;53703;50.326;19.122;2023-05-10T09:22:12;5.80;;;2.10;;
66800;SDS011;53703;50.326;19.122;2023-05-10T09:25:07;3.40;;;2.10;;
66800;SDS011;53703;50.326;19.122;2023-05-10T09:28:03;6.10;;;3.00;;
66800;SDS011;53703;50.326;19.122;2023-05-10T09:31:00;5.80;;;3.10;;
66800;SDS011;53703;50.326;19.122;2023-05-10T09:33:54;5.50;;;2.40;;
66800;SDS011;53703;50.326;19.122;2023-05-10T09:36:55;5.10;;;2.30;;
66800;SDS011;53703;50.326;19.122;2023-05-10T09:39:51;3.60;;;2.00;;
66800;SDS011;53703;50.326;19.122;2023-05-10T09:42:54;7.70;;;2.10;;
66800;SDS011;53703;50.326;19.122;2023-05-10T09:45:49;8.50;;;2.20;;
66800;SDS011;53703;50.326;19.122;2023-05-10T09:48:45;3.80;;;2.10;;
66800;SDS011;53703;50.326;19.122;2023-05-10T09:51:39;2.90;;;2.20;;
66800;SDS011;53703;50.326;19.122;2023-05-10T09:54:19;7.60;;;2.90;;
66800;SDS011;53703;50.326;19.122;2023-05-10T09:57:21;4.70;;;2.30;;
66800;SDS011;53703;50.326;19.122;2023-05-10T10:00:19;5.10;;;1.90;;
66800;SDS011;53703;50.326;19.122;2023-05-10T10:06:10;6.30;;;2.00;;
66800;SDS011;53703;50.326;19.122;2023-05-10T10:09:20;4.10;;;1.80;;
66800;SDS011;53703;50.326;19.122;2023-05-10T10:12:13;2.80;;;1.90;;
66800;SDS011;53703;50.326;19.122;2023-05-10T10:15:09;3.90;;;2.50;;
66800;SDS011;53703;50.326;19.122;2023-05-10T10:18:06;5.00;;;2.70;;
66800;SDS011;53703;50.326;19.122;2023-05-10T10:21:21;5.70;;;2.60;;
66800;SDS011;53703;50.326;19.122;2023-05-10T10:24:15;4.90;;;3.10;;
66800;SDS011;53703;50.326;19.122;2023-05-10T10:27:19;4.90;;;2.90;;
66800;SDS011;53703;50.326;19.122;2023-05-10T10:30:21;4.70;;;2.70;;
66800;SDS011;53703;50.326;19.122;2023-05-10T10:33:33;3.50;;;2.30;;
66800;SDS011;53703;50.326;19.122;2023-05-10T10:36:34;3.50;;;2.50;;
66800;SDS011;53703;50.326;19.122;2023-05-10T10:39:34;6.00;;;3.20;;
66800;SDS011;53703;50.326;19.122;2023-05-10T10:42:47;4.80;;;2.80;;
66800;SDS011;53703;50.326;19.122;2023-05-10T10:45:41;3.50;;;2.60;;
66800;SDS011;53703;50.326;19.122;2023-05-10T10:48:35;4.60;;;2.90;;
66800;SDS011;53703;50.326;19.122;2023-05-10T10:51:31;6.80;;;2.10;;
66800;SDS011;53703;50.326;19.122;2023-05-10T10:54:29;7.80;;;2.30;;
66800;SDS011;53703;50.326;19.122;2023-05-10T10:57:24;6.00;;;2.40;;
66800;SDS011;53703;50.326;19.122;2023-05-10T11:00:26;4.70;;;2.60;;
66800;SDS011;53703;50.326;19.122;2023-05-10T11:03:22;4.80;;;2.80;;
66800;SDS011;53703;50.326;19.122;2023-05-10T11:06:18;4.60;;;2.50;;
66800;SDS011;53703;50.326;19.122;2023-05-10T11:09:23;4.00;;;2.40;;
66800;SDS011;53703;50.326;19.122;2023-05-10T11:12:17;4.70;;;2.60;;
66800;SDS011;53703;50.326;19.122;2023-05-10T11:15:14;5.90;;;2.60;;
66800;SDS011;53703;50.326;19.122;2023-05-10T11:18:20;3.00;;;2.10;;
66800;SDS011;53703;50.326;19.122;2023-05-10T11:21:17;4.20;;;2.20;;
66800;SDS011;53703;50.326;19.122;2023-05-10T11:24:15;3.30;;;2.20;;
66800;SDS011;53703;50.326;19.122;2023-05-10T11:27:11;3.20;;;2.10;;
66800;SDS011;53703;50.326;19.122;2023-05-10T11:30:08;6.00;;;2.00;;
66800;SDS011;53703;50.326;19.122;2023-05-10T11:33:04;3.10;;;1.80;;
66800;SDS011;53703;50.326;19.122;2023-05-10T11:35:59;3.50;;;2.00;;
66800;SDS011;53703;50.326;19.122;2023-05-10T11:39:12;3.90;;;2.10;;
66800;SDS011;53703;50.326;19.122;2023-05-10T11:42:06;3.50;;;2.10;;
66800;SDS011;53703;50.326;19.122;2023-05-10T11:45:03;4.90;;;2.50;;
66800;SDS011;53703;50.326;19.122;2023-05-10T11:47:58;4.30;;;2.60;;
66800;SDS011;53703;50.326;19.122;2023-05-10T11:50:53;5.10;;;2.90;;
66800;SDS011;53703;50.326;19.122;2023-05-10T11:53:48;6.50;;;2.50;;
66800;SDS011;53703;50.326;19.122;2023-05-10T11:56:44;3.20;;;2.50;;
66800;SDS011;53703;50.326;19.122;2023-05-10T11:59:38;4.20;;;2.60;;
66800;SDS011;53703;50.326;19.122;2023-05-10T12:02:33;9.00;;;2.50;;
66800;SDS011;53703;50.326;19.122;2023-05-10T12:05:27;5.80;;;2.10;;
66800;SDS011;53703;50.326;19.122;2023-05-10T12:08:24;3.20;;;2.20;;
66800;SDS011;53703;50.326;19.122;2023-05-10T12:11:20;5.70;;;2.40;;
66800;SDS011;53703;50.326;19.122;2023-05-10T12:14:18;6.00;;;2.40;;
66800;SDS011;53703;50.326;19.122;2023-05-10T12:17:14;4.00;;;2.30;;
66800;SDS011;53703;50.326;19.122;2023-05-10T12:20:18;6.10;;;2.20;;
66800;SDS011;53703;50.326;19.122;2023-05-10T12:23:13;4.20;;;2.20;;
66800;SDS011;53703;50.326;19.122;2023-05-10T12:26:08;4.10;;;2.30;;
66800;SDS011;53703;50.326;19.122;2023-05-10T12:29:15;10.10;;;2.40;;
66800;SDS011;53703;50.326;19.122;2023-05-10T12:32:11;6.60;;;2.90;;
66800;SDS011;53703;50.326;19.122;2023-05-10T12:35:07;6.30;;;2.40;;
66800;SDS011;53703;50.326;19.122;2023-05-10T12:38:01;5.50;;;2.60;;
66800;SDS011;53703;50.326;19.122;2023-05-10T12:41:20;8.20;;;3.30;;
66800;SDS011;53703;50.326;19.122;2023-05-10T12:44:15;8.10;;;4.50;;
66800;SDS011;53703;50.326;19.122;2023-05-10T12:47:09;5.90;;;3.50;;
66800;SDS011;53703;50.326;19.122;2023-05-10T12:50:04;7.60;;;3.30;;
66800;SDS011;53703;50.326;19.122;2023-05-10T12:52:58;7.70;;;3.60;;
66800;SDS011;53703;50.326;19.122;2023-05-10T12:55:52;7.80;;;4.50;;
66800;SDS011;53703;50.326;19.122;2023-05-10T12:58:46;6.70;;;3.20;;
66800;SDS011;53703;50.326;19.122;2023-05-10T13:01:40;4.60;;;2.60;;
66800;SDS011;53703;50.326;19.122;2023-05-10T13:04:34;7.30;;;3.90;;
66800;SDS011;53703;50.326;19.122;2023-05-10T13:07:30;9.80;;;4.00;;
66800;SDS011;53703;50.326;19.122;2023-05-10T13:10:24;8.00;;;3.20;;
66800;SDS011;53703;50.326;19.122;2023-05-10T13:13:18;6.20;;;3.20;;
66800;SDS011;53703;50.326;19.122;2023-05-10T13:16:12;7.20;;;3.60;;
66800;SDS011;53703;50.326;19.122;2023-05-10T13:19:06;5.10;;;2.90;;
66800;SDS011;53703;50.326;19.122;2023-05-10T13:22:00;7.80;;;3.00;;
66800;SDS011;53703;50.326;19.122;2023-05-10T13:24:55;7.80;;;3.40;;
66800;SDS011;53703;50.326;19.122;2023-05-10T13:27:49;5.80;;;3.00;;
66800;SDS011;53703;50.326;19.122;2023-05-10T13:30:43;5.10;;;2.80;;
66800;SDS011;53703;50.326;19.122;2023-05-10T13:33:37;6.30;;;2.70;;
66800;SDS011;53703;50.326;19.122;2023-05-10T13:36:31;5.60;;;2.80;;
66800;SDS011;53703;50.326;19.122;2023-05-10T13:39:19;7.10;;;2.70;;
66800;SDS011;53703;50.326;19.122;2023-05-10T13:42:13;4.00;;;2.40;;
66800;SDS011;53703;50.326;19.122;2023-05-10T13:45:09;4.80;;;2.70;;
66800;SDS011;53703;50.326;19.122;2023-05-10T13:48:05;4.20;;;2.70;;
66800;SDS011;53703;50.326;19.122;2023-05-10T13:50:59;4.90;;;2.70;;
66800;SDS011;53703;50.326;19.122;2023-05-10T13:53:52;4.80;;;3.00;;
66800;SDS011;53703;50.326;19.122;2023-05-10T13:56:46;8.30;;;2.90;;
66800;SDS011;53703;50.326;19.122;2023-05-10T13:59:40;4.70;;;2.70;;
66800;SDS011;53703;50.326;19.122;2023-05-10T14:02:34;4.80;;;2.40;;
66800;SDS011;53703;50.326;19.122;2023-05-10T14:05:28;5.40;;;2.50;;
66800;SDS011;53703;50.326;19.122;2023-05-10T14:08:23;4.10;;;2.50;;
66800;SDS011;53703;50.326;19.122;2023-05-10T14:11:18;4.70;;;2.50;;
66800;SDS011;53703;50.326;19.122;2023-05-10T14:14:14;5.80;;;2.40;;
66800;SDS011;53703;50.326;19.122;2023-05-10T14:17:08;5.50;;;2.30;;
66800;SDS011;53703;50.326;19.122;2023-05-10T14:20:02;8.00;;;2.30;;
66800;SDS011;53703;50.326;19.122;2023-05-10T14:22:57;4.60;;;2.50;;
66800;SDS011;53703;50.326;19.122;2023-05-10T14:25:51;5.00;;;2.20;;
66800;SDS011;53703;50.326;19.122;2023-05-10T14:28:45;3.30;;;2.40;;
66800;SDS011;53703;50.326;19.122;2023-05-10T14:31:39;5.60;;;2.20;;
66800;SDS011;53703;50.326;19.122;2023-05-10T14:34:33;3.10;;;2.00;;
66800;SDS011;53703;50.326;19.122;2023-05-10T14:37:27;5.50;;;2.30;;
66800;SDS011;53703;50.326;19.122;2023-05-10T14:40:21;4.20;;;2.40;;
66800;SDS011;53703;50.326;19.122;2023-05-10T14:43:15;5.60;;;2.40;;
66800;SDS011;53703;50.326;19.122;2023-05-10T14:46:09;5.20;;;2.60;;
66800;SDS011;53703;50.326;19.122;2023-05-10T14:49:03;4.40;;;1.80;;
66800;SDS011;53703;50.326;19.122;2023-05-10T14:51:57;5.70;;;2.50;;
66800;SDS011;53703;50.326;19.122;2023-05-10T14:54:51;4.40;;;2.20;;
66800;SDS011;53703;50.326;19.122;2023-05-10T14:57:45;4.40;;;2.40;;
66800;SDS011;53703;50.326;19.122;2023-05-10T15:00:41;3.70;;;2.60;;
66800;SDS011;53703;50.326;19.122;2023-05-10T15:03:36;3.80;;;2.20;;
66800;SDS011;53703;50.326;19.122;2023-05-10T15:06:33;3.40;;;2.40;;
66800;SDS011;53703;50.326;19.122;2023-05-10T15:09:27;4.10;;;2.60;;
66800;SDS011;53703;50.326;19.122;2023-05-10T15:12:21;3.80;;;2.30;;
66800;SDS011;53703;50.326;19.122;2023-05-10T15:15:15;6.50;;;2.40;;
66800;SDS011;53703;50.326;19.122;2023-05-10T15:18:09;5.40;;;2.80;;
66800;SDS011;53703;50.326;19.122;2023-05-10T15:21:03;5.30;;;2.80;;
66800;SDS011;53703;50.326;19.122;2023-05-10T15:23:57;5.70;;;2.70;;
66800;SDS011;53703;50.326;19.122;2023-05-10T15:26:51;5.10;;;2.70;;
66800;SDS011;53703;50.326;19.122;2023-05-10T15:29:45;3.90;;;2.20;;
66800;SDS011;53703;50.326;19.122;2023-05-10T15:32:40;5.90;;;3.20;;
66800;SDS011;53703;50.326;19.122;2023-05-10T15:35:35;7.40;;;3.80;;
66800;SDS011;53703;50.326;19.122;2023-05-10T15:38:30;3.60;;;2.40;;
66800;SDS011;53703;50.326;19.122;2023-05-10T15:41:24;5.50;;;3.20;;
66800;SDS011;53703;50.326;19.122;2023-05-10T15:44:19;8.80;;;3.10;;
66800;SDS011;53703;50.326;19.122;2023-05-10T15:47:13;7.30;;;3.20;;
66800;SDS011;53703;50.326;19.122;2023-05-10T15:50:09;6.10;;;3.30;;
66800;SDS011;53703;50.326;19.122;2023-05-10T15:53:03;5.70;;;2.70;;
66800;SDS011;53703;50.326;19.122;2023-05-10T15:55:57;4.70;;;3.30;;
66800;SDS011;53703;50.326;19.122;2023-05-10T15:58:51;4.50;;;2.60;;
66800;SDS011;53703;50.326;19.122;2023-05-10T16:01:45;5.10;;;3.00;;
66800;SDS011;53703;50.326;19.122;2023-05-10T16:04:39;5.00;;;3.20;;
66800;SDS011;53703;50.326;19.122;2023-05-10T16:07:34;3.40;;;2.60;;
66800;SDS011;53703;50.326;19.122;2023-05-10T16:10:28;4.60;;;2.70;;
66800;SDS011;53703;50.326;19.122;2023-05-10T16:13:24;5.20;;;3.10;;
66800;SDS011;53703;50.326;19.122;2023-05-10T16:16:19;6.40;;;2.90;;
66800;SDS011;53703;50.326;19.122;2023-05-10T16:19:13;5.10;;;3.00;;
66800;SDS011;53703;50.326;19.122;2023-05-10T16:22:08;4.60;;;2.80;;
66800;SDS011;53703;50.326;19.122;2023-05-10T16:25:02;5.20;;;2.40;;
66800;SDS011;53703;50.326;19.122;2023-05-10T16:27:57;4.60;;;2.80;;
66800;SDS011;53703;50.326;19.122;2023-05-10T16:30:52;5.20;;;3.10;;
66800;SDS011;53703;50.326;19.122;2023-05-10T16:33:46;5.40;;;2.70;;
66800;SDS011;53703;50.326;19.122;2023-05-10T16:36:40;5.60;;;2.80;;
66800;SDS011;53703;50.326;19.122;2023-05-10T16:39:19;6.80;;;3.10;;
66800;SDS011;53703;50.326;19.122;2023-05-10T16:42:14;5.60;;;2.80;;
66800;SDS011;53703;50.326;19.122;2023-05-10T16:45:09;6.70;;;2.80;;
66800;SDS011;53703;50.326;19.122;2023-05-10T16:48:04;6.40;;;2.90;;
66800;SDS011;53703;50.326;19.122;2023-05-10T16:50:58;5.60;;;2.60;;
66800;SDS011;53703;50.326;19.122;2023-05-10T16:53:54;5.80;;;2.70;;
66800;SDS011;53703;50.326;19.122;2023-05-10T16:56:48;7.00;;;2.80;;
66800;SDS011;53703;50.326;19.122;2023-05-10T16:59:42;6.80;;;3.00;;
66800;SDS011;53703;50.326;19.122;2023-05-10T17:02:36;7.30;;;4.10;;
66800;SDS011;53703;50.326;19.122;2023-05-10T17:05:30;7.10;;;3.00;;
66800;SDS011;53703;50.326;19.122;2023-05-10T17:08:25;8.90;;;3.00;;
66800;SDS011;53703;50.326;19.122;2023-05-10T17:11:19;6.90;;;3.20;;
66800;SDS011;53703;50.326;19.122;2023-05-10T17:14:13;8.20;;;3.70;;
66800;SDS011;53703;50.326;19.122;2023-05-10T17:17:07;8.90;;;2.90;;
66800;SDS011;53703;50.326;19.122;2023-05-10T17:20:01;9.50;;;3.00;;
66800;SDS011;53703;50.326;19.122;2023-05-10T17:22:55;6.30;;;3.10;;
66800;SDS011;53703;50.326;19.122;2023-05-10T17:25:49;7.20;;;3.00;;